Terminal Aerodrome Forecast
Issued by NWS Cleveland, OH

Home | Current Version | Previous Version | Graphics & Text | Print | Product List | Glossary On
Versions: 1 2 3 4 5 6 7 8 9 10 11 12 13 14 15 16 17
000
FTUS41 KCLE 212340
TAFERI
TAF
KERI 212340Z 2200/2224 18015G22KT P6SM SCT025 BKN045
     FM220400 18012KT P6SM VCSH BKN025
      TEMPO 2204/2206 5SM -SHRA OVC015
     FM220800 24006KT P6SM BKN025
     FM221400 25012G20KT P6SM BKN035
     FM221700 25015G22KT P6SM SCT040=

USA.gov is the U.S. government's official web portal to all federal, state and local government web resources and services.